^^
Station Historical Data
Daily Summary for December 6, 2017 Units:  English    Metric   Both
« Previous Day
Next Day »
Daily Weekly Monthly Yearly Custom
  High: Low: Average:
Temperature: 49.8 °F 37.2 °F 41.2 °F
Dew Point: 48.7 °F 16.7 °F 27.2 °F
Humidity: 96% 33% 59%
Wind Speed: 6.0mph 0.0mph 0.6mph
Wind Gust: 11.0mph - -
Wind- - West
Pressure: 30.26 in 30.12 in -
Precipitation: 0.00 in    
Historical Graphs
 
 
Tabular Data for December 6, 2017
Time Temperature Dew Point Pressure Wind Wind Speed Wind Gust Humidity Rainfall Rate (Hourly)
00:00 49.8 °F 48.7 °F 30.14 in Calm     96% 0.00 in
00:05 49.6 °F 48.6 °F 30.14 in Calm   4.0 mph 96% 0.00 in
00:10 49.5 °F 48.4 °F 30.15 in Calm   2.0 mph 96% 0.00 in
00:15 49.1 °F 48.0 °F 30.14 in NNW 2.9 mph 3.0 mph 96% 0.00 in
00:20 48.6 °F 47.1 °F 30.14 in Calm   4.0 mph 95% 0.00 in
00:25 47.8 °F 46.4 °F 30.14 in WNW 2.0 mph 3.0 mph 95% 0.00 in
00:30 47.7 °F 46.2 °F 30.14 in Calm   6.0 mph 95% 0.00 in
00:32 47.5 °F 46.0 °F 30.14 in Calm   3.0 mph 95% 0.00 in
00:37 47.3 °F 45.9 °F 30.14 in Calm   9.0 mph 95% 0.00 in
00:42 47.3 °F 46.2 °F 30.14 in Calm   1.0 mph 96% 0.00 in
00:47 47.1 °F 46.0 °F 30.13 in Calm   1.0 mph 96% 0.00 in
00:52 47.1 °F 46.0 °F 30.14 in Calm   1.0 mph 96% 0.00 in
00:57 47.1 °F 46.0 °F 30.14 in Calm     96% 0.00 in
01:03 47.1 °F 46.0 °F 30.13 in Calm   2.0 mph 96% 0.00 in
01:08 46.8 °F 45.3 °F 30.13 in Calm   1.0 mph 95% 0.00 in
01:13 46.2 °F 44.8 °F 30.13 in Calm   2.0 mph 95% 0.00 in
01:18 46.0 °F 44.6 °F 30.13 in Calm     95% 0.00 in
01:23 45.9 °F 44.4 °F 30.13 in NNE 0.9 mph 5.0 mph 95% 0.00 in
01:28 45.3 °F 43.7 °F 30.12 in Calm   1.0 mph 94% 0.00 in
01:33 45.0 °F 43.3 °F 30.12 in Calm   5.0 mph 94% 0.00 in
01:43 43.5 °F 41.4 °F 30.13 in NW 2.9 mph 7.0 mph 92% 0.00 in
01:48 43.2 °F 40.6 °F 30.13 in North 2.9 mph 6.0 mph 91% 0.00 in
01:53 42.6 °F 39.9 °F 30.13 in Calm   9.0 mph 90% 0.00 in
01:59 42.4 °F 39.9 °F 30.14 in Calm   2.0 mph 91% 0.00 in
02:04 42.1 °F 39.0 °F 30.14 in Calm   2.0 mph 89% 0.00 in
02:09 41.7 °F 38.7 °F 30.15 in Calm   1.0 mph 89% 0.00 in
02:14 41.5 °F 38.5 °F 30.15 in Calm   1.0 mph 89% 0.00 in
02:19 41.2 °F 36.7 °F 30.16 in Calm   6.0 mph 84% 0.00 in
02:24 41.2 °F 35.2 °F 30.15 in West 2.9 mph 5.0 mph 79% 0.00 in
02:29 41.0 °F 34.3 °F 30.15 in WNW 0.9 mph 7.0 mph 77% 0.00 in
02:34 40.8 °F 33.4 °F 30.15 in NNW 0.9 mph 6.0 mph 75% 0.00 in
02:39 40.6 °F 33.6 °F 30.15 in WNW 6.0 mph 11.0 mph 76% 0.00 in
02:45 40.8 °F 33.8 °F 30.16 in Calm   4.0 mph 76% 0.00 in
02:50 40.6 °F 32.7 °F 30.16 in NW 2.0 mph 8.0 mph 73% 0.00 in
02:55 40.8 °F 33.4 °F 30.16 in WNW 2.0 mph 5.0 mph 75% 0.00 in
03:00 40.8 °F 33.4 °F 30.16 in Calm   3.0 mph 75% 0.00 in
03:05 40.8 °F 33.3 °F 30.16 in Calm   2.0 mph 74% 0.00 in
03:15 40.5 °F 34.2 °F 30.16 in Calm   2.0 mph 78% 0.00 in
03:20 40.3 °F 34.9 °F 30.16 in Calm     81% 0.00 in
03:25 40.3 °F 35.2 °F 30.16 in Calm     82% 0.00 in
03:31 39.9 °F 35.4 °F 30.16 in Calm   1.0 mph 84% 0.00 in
03:36 39.7 °F 34.7 °F 30.15 in NNW 2.0 mph 2.0 mph 82% 0.00 in
03:41 39.6 °F 34.2 °F 30.15 in Calm   3.0 mph 81% 0.00 in
03:46 39.6 °F 33.6 °F 30.15 in Calm   1.0 mph 79% 0.00 in
03:51 39.6 °F 33.6 °F 30.15 in Calm     79% 0.00 in
03:56 39.7 °F 34.3 °F 30.16 in Calm     81% 0.00 in
04:01 39.6 °F 34.2 °F 30.15 in Calm   1.0 mph 81% 0.00 in
04:06 39.6 °F 34.9 °F 30.15 in Calm   3.0 mph 83% 0.00 in
04:11 39.6 °F 34.5 °F 30.16 in Calm   3.0 mph 82% 0.00 in
04:16 39.4 °F 34.3 °F 30.16 in North 2.0 mph 4.0 mph 82% 0.00 in
04:21 39.4 °F 34.7 °F 30.16 in Calm   1.0 mph 83% 0.00 in
04:26 39.2 °F 34.2 °F 30.16 in NNE 0.9 mph 8.0 mph 82% 0.00 in
04:32 39.0 °F 34.0 °F 30.15 in Calm   4.0 mph 82% 0.00 in
04:42 39.0 °F 34.5 °F 30.15 in NW 4.9 mph 5.0 mph 84% 0.00 in
04:47 38.8 °F 34.2 °F 30.15 in Calm   5.0 mph 83% 0.00 in
04:52 38.8 °F 34.3 °F 30.14 in Calm   5.0 mph 84% 0.00 in
04:56 38.8 °F 34.2 °F 30.14 in WNW 2.9 mph 3.0 mph 83% 0.00 in
05:01 38.7 °F 34.0 °F 30.15 in WNW 4.9 mph 5.0 mph 83% 0.00 in
05:06 38.7 °F 34.2 °F 30.15 in NNE 0.9 mph 4.0 mph 84% 0.00 in
05:11 38.7 °F 34.2 °F 30.15 in Calm   6.0 mph 84% 0.00 in
05:16 38.7 °F 34.2 °F 30.15 in Calm   3.0 mph 84% 0.00 in
05:21 38.5 °F 33.4 °F 30.15 in WNW 4.0 mph 6.0 mph 82% 0.00 in
05:26 38.5 °F 32.9 °F 30.15 in NE 0.9 mph 1.0 mph 80% 0.00 in
05:36 38.3 °F 31.6 °F 30.14 in ENE 2.0 mph 3.0 mph 77% 0.00 in
05:41 38.3 °F 30.4 °F 30.14 in WNW 2.0 mph 4.0 mph 73% 0.00 in
05:46 38.1 °F 29.8 °F 30.14 in Calm   4.0 mph 72% 0.00 in
05:51 38.1 °F 29.8 °F 30.15 in Calm   1.0 mph 72% 0.00 in
05:56 38.1 °F 29.8 °F 30.15 in Calm     72% 0.00 in
06:02 37.9 °F 31.1 °F 30.15 in Calm   1.0 mph 76% 0.00 in
06:07 37.9 °F 29.1 °F 30.14 in NW 0.9 mph 3.0 mph 70% 0.00 in
06:12 37.9 °F 29.1 °F 30.15 in NW 2.9 mph 3.0 mph 70% 0.00 in
06:17 37.9 °F 29.1 °F 30.15 in Calm   3.0 mph 70% 0.00 in
06:27 37.8 °F 28.6 °F 30.15 in Calm   2.0 mph 69% 0.00 in
06:32 37.8 °F 28.2 °F 30.16 in Calm   3.0 mph 68% 0.00 in
06:37 37.6 °F 28.0 °F 30.16 in Calm   7.0 mph 68% 0.00 in
06:42 37.6 °F 28.0 °F 30.16 in WNW 0.9 mph 4.0 mph 68% 0.00 in
06:48 37.6 °F 28.4 °F 30.16 in Calm   2.0 mph 69% 0.00 in
06:53 37.4 °F 27.5 °F 30.16 in NW 0.9 mph 5.0 mph 67% 0.00 in
06:58 37.4 °F 28.9 °F 30.17 in NNE 2.9 mph 5.0 mph 71% 0.00 in
07:03 37.4 °F 28.9 °F 30.17 in WNW 2.0 mph 8.0 mph 71% 0.00 in
07:08 37.2 °F 27.3 °F 30.16 in Calm   3.0 mph 67% 0.00 in
07:13 37.2 °F 26.6 °F 30.16 in Calm   7.0 mph 65% 0.00 in
07:18 37.4 °F 26.8 °F 30.16 in West 0.9 mph 4.0 mph 65% 0.00 in
07:24 37.4 °F 27.1 °F 30.16 in NW 0.9 mph 6.0 mph 66% 0.00 in
07:29 37.4 °F 27.1 °F 30.16 in North 2.9 mph 3.0 mph 66% 0.00 in
07:34 37.2 °F 27.0 °F 30.16 in Calm     66% 0.00 in
07:39 37.2 °F 26.6 °F 30.16 in Calm   1.0 mph 65% 0.00 in
07:44 37.2 °F 27.3 °F 30.16 in Calm     67% 0.00 in
07:49 37.2 °F 27.3 °F 30.17 in Calm   5.0 mph 67% 0.00 in
07:54 37.4 °F 27.1 °F 30.16 in Calm   1.0 mph 66% 0.00 in
07:59 37.6 °F 27.0 °F 30.16 in Calm   1.0 mph 65% 0.00 in
08:04 37.6 °F 26.6 °F 30.16 in Calm   4.0 mph 64% 0.00 in
08:09 37.8 °F 27.9 °F 30.16 in Calm   2.0 mph 67% 0.00 in
08:14 37.8 °F 26.6 °F 30.16 in Calm   7.0 mph 64% 0.00 in
08:19 37.9 °F 26.4 °F 30.16 in Calm   4.0 mph 63% 0.00 in
08:24 37.9 °F 26.8 °F 30.16 in NW 2.0 mph 5.0 mph 64% 0.00 in
08:29 37.9 °F 27.7 °F 30.16 in Calm   3.0 mph 66% 0.00 in
08:34 37.9 °F 28.4 °F 30.16 in Calm   1.0 mph 68% 0.00 in
08:39 37.9 °F 27.7 °F 30.17 in Calm   2.0 mph 66% 0.00 in
08:44 37.9 °F 27.7 °F 30.17 in West 4.9 mph 10.0 mph 66% 0.00 in
08:50 37.9 °F 28.0 °F 30.17 in Calm   1.0 mph 67% 0.00 in
08:55 37.9 °F 28.0 °F 30.17 in WNW 4.0 mph 6.0 mph 67% 0.00 in
08:57 37.9 °F 28.0 °F 30.18 in WNW 4.9 mph 5.0 mph 67% 0.00 in
09:02 38.1 °F 27.0 °F 30.19 in NE 6.0 mph 6.0 mph 64% 0.00 in
09:12 38.1 °F 26.6 °F 30.20 in WNW 0.9 mph 7.0 mph 63% 0.00 in
09:17 38.1 °F 25.9 °F 30.21 in Calm   9.0 mph 61% 0.00 in
09:22 38.1 °F 24.3 °F 30.22 in NNW 2.9 mph 11.0 mph 57% 0.00 in
09:27 38.1 °F 23.9 °F 30.22 in Calm   9.0 mph 56% 0.00 in
09:32 38.1 °F 23.4 °F 30.22 in Calm   5.0 mph 55% 0.00 in
09:37 38.1 °F 23.9 °F 30.23 in WNW 0.9 mph 5.0 mph 56% 0.00 in
09:42 38.1 °F 24.6 °F 30.23 in Calm   4.0 mph 58% 0.00 in
09:47 38.1 °F 24.3 °F 30.23 in Calm   2.0 mph 57% 0.00 in
09:52 38.1 °F 23.4 °F 30.23 in Calm   5.0 mph 55% 0.00 in
09:57 38.1 °F 23.9 °F 30.24 in Calm   1.0 mph 56% 0.00 in
10:03 38.3 °F 23.5 °F 30.24 in Calm   1.0 mph 55% 0.00 in
10:08 38.3 °F 23.9 °F 30.24 in Calm   1.0 mph 56% 0.00 in
10:13 38.5 °F 24.6 °F 30.24 in WNW 2.0 mph 4.0 mph 57% 0.00 in
10:18 38.5 °F 23.7 °F 30.24 in Calm   3.0 mph 55% 0.00 in
10:23 38.7 °F 23.0 °F 30.25 in Calm   6.0 mph 53% 0.00 in
10:28 38.7 °F 22.6 °F 30.24 in NW 4.0 mph 6.0 mph 52% 0.00 in
10:29 38.7 °F 22.1 °F 30.24 in WNW 2.9 mph 6.0 mph 51% 0.00 in
10:34 38.8 °F 22.3 °F 30.26 in Calm   6.0 mph 51% 0.00 in
10:39 38.8 °F 22.6 °F 30.25 in Calm   7.0 mph 52% 0.00 in
10:44 39.0 °F 21.9 °F 30.25 in Calm   2.0 mph 50% 0.00 in
10:49 39.0 °F 22.5 °F 30.26 in WNW 2.0 mph 6.0 mph 51% 0.00 in
10:54 39.0 °F 22.8 °F 30.25 in WNW 0.9 mph 3.0 mph 52% 0.00 in
10:59 39.0 °F 22.8 °F 30.25 in Calm   6.0 mph 52% 0.00 in
11:04 39.2 °F 22.1 °F 30.25 in WNW 4.0 mph 4.0 mph 50% 0.00 in
11:09 39.4 °F 22.8 °F 30.25 in West 0.9 mph 2.0 mph 51% 0.00 in
11:14 39.4 °F 24.1 °F 30.25 in Calm   5.0 mph 54% 0.00 in
11:20 39.4 °F 22.3 °F 30.24 in Calm   9.0 mph 50% 0.00 in
11:25 39.6 °F 23.4 °F 30.24 in Calm   8.0 mph 52% 0.00 in
11:30 39.6 °F 22.5 °F 30.24 in Calm   2.0 mph 50% 0.00 in
11:35 39.7 °F 23.2 °F 30.24 in WNW 2.9 mph 4.0 mph 51% 0.00 in
11:40 39.7 °F 23.5 °F 30.24 in Calm   1.0 mph 52% 0.00 in
11:46 39.7 °F 23.5 °F 30.24 in NNW 2.0 mph 4.0 mph 52% 0.00 in
11:51 39.9 °F 23.2 °F 30.24 in Calm   5.0 mph 51% 0.00 in
11:56 39.9 °F 22.3 °F 30.23 in WNW 2.9 mph 6.0 mph 49% 0.00 in
12:01 39.9 °F 23.2 °F 30.24 in NW 0.9 mph 6.0 mph 51% 0.00 in
12:06 39.9 °F 23.2 °F 30.23 in NW 4.0 mph 6.0 mph 51% 0.00 in
12:11 39.9 °F 23.7 °F 30.23 in West 2.0 mph 5.0 mph 52% 0.00 in
12:17 40.1 °F 24.8 °F 30.23 in NW 4.9 mph 5.0 mph 54% 0.00 in
12:22 40.1 °F 23.4 °F 30.23 in Calm   7.0 mph 51% 0.00 in
12:27 40.3 °F 25.0 °F 30.23 in WNW 0.9 mph 1.0 mph 54% 0.00 in
12:32 40.3 °F 23.2 °F 30.22 in Calm   10.0 mph 50% 0.00 in
12:37 40.5 °F 23.4 °F 30.22 in Calm   1.0 mph 50% 0.00 in
12:42 40.5 °F 23.4 °F 30.22 in Calm   4.0 mph 50% 0.00 in
12:47 40.6 °F 23.5 °F 30.21 in Calm   3.0 mph 50% 0.00 in
12:52 40.6 °F 23.0 °F 30.21 in Calm   4.0 mph 49% 0.00 in
12:57 40.8 °F 23.2 °F 30.20 in Calm   2.0 mph 49% 0.00 in
13:02 41.0 °F 22.8 °F 30.20 in Calm   1.0 mph 48% 0.00 in
13:07 41.2 °F 21.9 °F 30.20 in NNW 2.0 mph 2.0 mph 46% 0.00 in
13:12 41.4 °F 22.6 °F 30.20 in Calm   1.0 mph 47% 0.00 in
13:17 41.4 °F 21.0 °F 30.20 in Calm   1.0 mph 44% 0.00 in
13:22 41.5 °F 20.7 °F 30.20 in Calm   5.0 mph 43% 0.00 in
13:27 41.7 °F 21.9 °F 30.20 in Calm   2.0 mph 45% 0.00 in
13:32 42.1 °F 20.1 °F 30.20 in Calm   4.0 mph 41% 0.00 in
13:37 42.3 °F 19.0 °F 30.20 in NW 0.9 mph 5.0 mph 39% 0.00 in
13:42 42.4 °F 19.8 °F 30.20 in North 0.9 mph 3.0 mph 40% 0.00 in
13:48 42.6 °F 19.9 °F 30.20 in Calm   3.0 mph 40% 0.00 in
13:53 42.6 °F 17.6 °F 30.19 in NNW 4.0 mph 7.0 mph 36% 0.00 in
13:58 43.0 °F 19.8 °F 30.19 in Calm     39% 0.00 in
14:04 43.0 °F 20.8 °F 30.19 in Calm     41% 0.00 in
14:09 42.8 °F 20.7 °F 30.19 in Calm     41% 0.00 in
14:14 43.0 °F 20.3 °F 30.19 in Calm   1.0 mph 40% 0.00 in
14:19 43.0 °F 22.1 °F 30.19 in NW 0.9 mph 2.0 mph 43% 0.00 in
14:24 43.0 °F 19.8 °F 30.19 in Calm   1.0 mph 39% 0.00 in
14:29 43.0 °F 20.3 °F 30.19 in Calm   1.0 mph 40% 0.00 in
14:34 43.0 °F 20.8 °F 30.18 in Calm   2.0 mph 41% 0.00 in
14:39 43.0 °F 17.8 °F 30.18 in Calm   5.0 mph 36% 0.00 in
14:44 43.2 °F 23.2 °F 30.18 in Calm     45% 0.00 in
14:49 43.2 °F 21.6 °F 30.18 in Calm     42% 0.00 in
14:52 43.2 °F 19.2 °F 30.17 in Calm     38% 0.00 in
14:58 43.3 °F 18.9 °F 30.17 in Calm   4.0 mph 37% 0.00 in
15:08 43.5 °F 19.0 °F 30.16 in Calm   2.0 mph 37% 0.00 in
15:13 43.7 °F 17.8 °F 30.16 in Calm   4.0 mph 35% 0.00 in
15:18 44.1 °F 17.4 °F 30.16 in ENE 2.9 mph 4.0 mph 34% 0.00 in
15:28 44.2 °F 17.6 °F 30.16 in West 2.9 mph 6.0 mph 34% 0.00 in
15:33 44.1 °F 18.1 °F 30.16 in Calm   1.0 mph 35% 0.00 in
15:38 44.1 °F 16.7 °F 30.16 in Calm   3.0 mph 33% 0.00 in
15:43 44.1 °F 18.1 °F 30.15 in NW 2.0 mph 8.0 mph 35% 0.00 in
15:48 44.1 °F 18.9 °F 30.16 in Calm   1.0 mph 36% 0.00 in
15:53 44.1 °F 21.2 °F 30.16 in East 0.9 mph 5.0 mph 40% 0.00 in
15:59 44.1 °F 18.9 °F 30.16 in West 2.0 mph 5.0 mph 36% 0.00 in
16:04 44.1 °F 18.9 °F 30.16 in Calm   4.0 mph 36% 0.00 in
16:09 44.1 °F 18.1 °F 30.16 in WNW 0.9 mph 8.0 mph 35% 0.00 in
16:14 44.1 °F 19.4 °F 30.16 in NW 0.9 mph 7.0 mph 37% 0.00 in
16:19 44.1 °F 20.1 °F 30.16 in Calm   3.0 mph 38% 0.00 in
16:24 43.9 °F 20.5 °F 30.16 in Calm   1.0 mph 39% 0.00 in
16:29 43.9 °F 20.5 °F 30.17 in Calm   9.0 mph 39% 0.00 in
16:34 43.5 °F 20.1 °F 30.17 in SE 0.9 mph 6.0 mph 39% 0.00 in
16:39 43.7 °F 20.3 °F 30.17 in Calm   1.0 mph 39% 0.00 in
16:44 43.5 °F 20.1 °F 30.17 in WNW 4.0 mph 4.0 mph 39% 0.00 in
16:50 43.5 °F 20.8 °F 30.18 in NW 2.9 mph 4.0 mph 40% 0.00 in
16:55 43.5 °F 20.1 °F 30.18 in Calm   4.0 mph 39% 0.00 in
17:00 43.3 °F 20.7 °F 30.17 in Calm   2.0 mph 40% 0.00 in
17:05 43.3 °F 22.3 °F 30.17 in Calm     43% 0.00 in
17:10 43.2 °F 21.6 °F 30.17 in Calm   3.0 mph 42% 0.00 in
17:16 43.2 °F 22.1 °F 30.17 in Calm   3.0 mph 43% 0.00 in
17:21 43.0 °F 22.6 °F 30.17 in NNW 2.0 mph 2.0 mph 44% 0.00 in
17:26 43.0 °F 22.6 °F 30.17 in NW 2.0 mph 5.0 mph 44% 0.00 in
17:31 43.0 °F 22.6 °F 30.17 in Calm   1.0 mph 44% 0.00 in
17:36 42.8 °F 23.0 °F 30.17 in Calm   3.0 mph 45% 0.00 in
17:41 42.6 °F 23.7 °F 30.19 in Calm   5.0 mph 47% 0.00 in
17:46 42.6 °F 23.4 °F 30.17 in Calm   1.0 mph 46% 0.00 in
17:51 42.6 °F 22.3 °F 30.17 in Calm   2.0 mph 44% 0.00 in
17:57 42.6 °F 22.3 °F 30.18 in Calm   4.0 mph 44% 0.00 in
18:02 42.6 °F 22.3 °F 30.18 in Calm     44% 0.00 in
18:07 42.6 °F 22.8 °F 30.19 in Calm   5.0 mph 45% 0.00 in
18:12 42.6 °F 23.4 °F 30.19 in Calm   3.0 mph 46% 0.00 in
18:17 42.6 °F 22.3 °F 30.19 in Calm   2.0 mph 44% 0.00 in
18:22 42.6 °F 22.8 °F 30.19 in Calm   3.0 mph 45% 0.00 in
18:27 42.6 °F 22.8 °F 30.19 in Calm   3.0 mph 45% 0.00 in
18:32 42.4 °F 23.2 °F 30.19 in Calm   1.0 mph 46% 0.00 in
18:33 42.4 °F 23.2 °F 30.19 in North 0.9 mph 3.0 mph 46% 0.00 in
18:38 42.4 °F 22.1 °F 30.20 in Calm   5.0 mph 44% 0.00 in
18:43 42.4 °F 22.6 °F 30.20 in Calm   1.0 mph 45% 0.00 in
18:48 42.4 °F 23.2 °F 30.20 in Calm   1.0 mph 46% 0.00 in
18:53 42.4 °F 22.1 °F 30.21 in Calm   9.0 mph 44% 0.00 in
18:58 42.4 °F 22.6 °F 30.21 in Calm   1.0 mph 45% 0.00 in
19:04 42.4 °F 22.6 °F 30.21 in Calm     45% 0.00 in
19:09 42.4 °F 23.2 °F 30.21 in WNW 0.9 mph 3.0 mph 46% 0.00 in
19:14 42.4 °F 23.2 °F 30.21 in Calm     46% 0.00 in
19:19 42.4 °F 22.1 °F 30.22 in Calm     44% 0.00 in
19:24 42.4 °F 23.2 °F 30.22 in Calm   1.0 mph 46% 0.00 in
19:30 42.4 °F 22.1 °F 30.23 in Calm   1.0 mph 44% 0.00 in
19:35 42.4 °F 22.1 °F 30.23 in Calm     44% 0.00 in
19:40 42.4 °F 22.1 °F 30.23 in Calm   1.0 mph 44% 0.00 in
19:45 42.4 °F 23.2 °F 30.22 in Calm   2.0 mph 46% 0.00 in
19:51 42.4 °F 22.6 °F 30.22 in Calm     45% 0.00 in
19:56 42.3 °F 23.0 °F 30.22 in Calm   4.0 mph 46% 0.00 in
20:02 42.3 °F 23.0 °F 30.23 in Calm     46% 0.00 in
20:07 42.3 °F 23.0 °F 30.23 in Calm   3.0 mph 46% 0.00 in
20:12 42.3 °F 23.5 °F 30.24 in Calm     47% 0.00 in
20:17 42.3 °F 23.0 °F 30.24 in Calm     46% 0.00 in
20:22 42.3 °F 22.5 °F 30.25 in Calm     45% 0.00 in
20:27 42.3 °F 22.5 °F 30.25 in Calm     45% 0.00 in
20:32 42.3 °F 23.5 °F 30.25 in Calm     47% 0.00 in
20:38 42.3 °F 25.9 °F 30.25 in Calm     52% 0.00 in
20:43 42.3 °F 24.4 °F 30.25 in Calm     49% 0.00 in
20:48 42.1 °F 24.3 °F 30.24 in Calm     49% 0.00 in
20:53 42.1 °F 22.8 °F 30.24 in Calm   3.0 mph 46% 0.00 in
20:58 42.1 °F 24.3 °F 30.24 in Calm     49% 0.00 in
21:03 42.1 °F 24.8 °F 30.24 in Calm     50% 0.00 in
21:09 41.9 °F 25.2 °F 30.23 in Calm     51% 0.00 in
21:14 41.7 °F 23.9 °F 30.24 in Calm     49% 0.00 in
21:19 41.5 °F 25.7 °F 30.23 in Calm     53% 0.00 in
21:24 41.5 °F 25.7 °F 30.23 in Calm   1.0 mph 53% 0.00 in
21:29 41.4 °F 24.6 °F 30.22 in WNW 2.9 mph 3.0 mph 51% 0.00 in
21:34 41.4 °F 25.5 °F 30.23 in Calm   1.0 mph 53% 0.00 in
21:39 41.4 °F 25.5 °F 30.23 in Calm     53% 0.00 in
21:44 41.4 °F 23.7 °F 30.23 in Calm     49% 0.00 in
21:45 41.4 °F 25.0 °F 30.23 in Calm     52% 0.00 in
21:50 41.4 °F 24.1 °F 30.23 in West 0.9 mph 1.0 mph 50% 0.00 in
21:55 41.4 °F 25.9 °F 30.23 in WSW 2.9 mph 3.0 mph 54% 0.00 in
22:00 41.4 °F 24.6 °F 30.23 in Calm   1.0 mph 51% 0.00 in
22:15 41.9 °F 25.2 °F 30.23 in Calm   1.0 mph 51% 0.00 in
22:20 41.9 °F 25.2 °F 30.23 in Calm     51% 0.00 in
22:25 42.1 °F 25.3 °F 30.23 in Calm     51% 0.00 in
22:27 42.1 °F 24.8 °F 30.23 in Calm   1.0 mph 50% 0.00 in
22:30 41.9 °F 25.2 °F 30.23 in Calm     51% 0.00 in
22:35 41.9 °F 26.4 °F 30.23 in NW 0.9 mph 1.0 mph 54% 0.00 in
22:41 41.7 °F 24.4 °F 30.23 in Calm   2.0 mph 50% 0.00 in
22:46 41.9 °F 25.5 °F 30.24 in Calm     52% 0.00 in
22:51 41.7 °F 26.2 °F 30.24 in Calm     54% 0.00 in
22:56 41.5 °F 26.1 °F 30.24 in Calm   2.0 mph 54% 0.00 in
23:01 41.5 °F 27.5 °F 30.24 in Calm   3.0 mph 57% 0.00 in
23:06 41.5 °F 25.7 °F 30.24 in Calm   1.0 mph 53% 0.00 in
23:11 41.7 °F 25.0 °F 30.24 in Calm   4.0 mph 51% 0.00 in
23:16 41.9 °F 27.0 °F 30.24 in Calm     55% 0.00 in
23:22 41.7 °F 26.8 °F 30.24 in Calm     55% 0.00 in
23:27 41.7 °F 26.2 °F 30.24 in Calm     54% 0.00 in
23:32 41.5 °F 27.5 °F 30.24 in Calm     57% 0.00 in
23:37 41.4 °F 26.8 °F 30.24 in Calm     56% 0.00 in
23:42 41.2 °F 27.5 °F 30.23 in Calm     58% 0.00 in
23:47 41.0 °F 27.3 °F 30.24 in Calm     58% 0.00 in
23:52 40.8 °F 27.7 °F 30.24 in Calm     59% 0.00 in
23:58 40.6 °F 27.5 °F 30.23 in Calm     59% 0.00 in
Ellijay Weather
Compliments of Weather Underground - 2.5 mb